sensor_id;sensor_type;location;lat;lon;timestamp;pressure;altitude;pressure_sealevel;temperature;humidity
13593;BME280;6867;50.998;4.250;2023-02-01T00:02:17;101974.66;;;8.54;80.70
13593;BME280;6867;50.998;4.250;2023-02-01T00:04:44;101971.31;;;8.68;81.18
13593;BME280;6867;50.998;4.250;2023-02-01T00:07:10;101967.63;;;8.61;80.01
13593;BME280;6867;50.998;4.250;2023-02-01T00:09:37;101949.34;;;8.40;80.18
13593;BME280;6867;50.998;4.250;2023-02-01T00:12:05;101974.34;;;8.65;79.80
13593;BME280;6867;50.998;4.250;2023-02-01T00:14:32;101966.13;;;8.75;79.63
13593;BME280;6867;50.998;4.250;2023-02-01T00:17:03;101948.72;;;8.71;79.76
13593;BME280;6867;50.998;4.250;2023-02-01T00:19:31;101944.50;;;8.68;78.80
13593;BME280;6867;50.998;4.250;2023-02-01T00:21:57;101938.00;;;8.71;78.71
13593;BME280;6867;50.998;4.250;2023-02-01T00:24:24;101926.59;;;8.69;78.40
13593;BME280;6867;50.998;4.250;2023-02-01T00:26:51;101927.78;;;8.75;77.24
13593;BME280;6867;50.998;4.250;2023-02-01T00:29:19;101918.56;;;8.61;77.27
13593;BME280;6867;50.998;4.250;2023-02-01T00:31:49;101900.31;;;8.48;77.13
13593;BME280;6867;50.998;4.250;2023-02-01T00:34:16;101897.31;;;8.51;76.63
13593;BME280;6867;50.998;4.250;2023-02-01T00:36:43;101881.22;;;8.43;76.93
13593;BME280;6867;50.998;4.250;2023-02-01T00:39:10;101869.88;;;8.41;76.50
13593;BME280;6867;50.998;4.250;2023-02-01T00:41:37;101865.50;;;8.40;76.10
13593;BME280;6867;50.998;4.250;2023-02-01T00:44:06;101843.03;;;8.24;75.11
13593;BME280;6867;50.998;4.250;2023-02-01T00:46:34;101840.03;;;8.36;75.10
13593;BME280;6867;50.998;4.250;2023-02-01T00:49:01;101845.22;;;8.29;74.85
13593;BME280;6867;50.998;4.250;2023-02-01T00:51:30;101856.91;;;8.12;75.00
13593;BME280;6867;50.998;4.250;2023-02-01T00:53:56;101845.88;;;8.23;74.64
13593;BME280;6867;50.998;4.250;2023-02-01T00:56:23;101837.19;;;8.29;73.70
13593;BME280;6867;50.998;4.250;2023-02-01T00:58:52;101831.16;;;8.35;73.26
13593;BME280;6867;50.998;4.250;2023-02-01T01:01:21;101851.75;;;8.35;73.17
13593;BME280;6867;50.998;4.250;2023-02-01T01:03:51;101850.28;;;8.48;72.66
13593;BME280;6867;50.998;4.250;2023-02-01T01:06:20;101851.91;;;8.33;72.49
13593;BME280;6867;50.998;4.250;2023-02-01T01:08:48;101864.97;;;8.36;73.30
13593;BME280;6867;50.998;4.250;2023-02-01T01:11:16;101870.31;;;8.20;72.56
13593;BME280;6867;50.998;4.250;2023-02-01T01:13:43;101879.53;;;8.34;73.19
13593;BME280;6867;50.998;4.250;2023-02-01T01:16:10;101874.16;;;8.26;73.08
13593;BME280;6867;50.998;4.250;2023-02-01T01:18:37;101870.63;;;8.09;73.64
13593;BME280;6867;50.998;4.250;2023-02-01T01:21:07;101873.81;;;8.20;73.38
13593;BME280;6867;50.998;4.250;2023-02-01T01:23:35;101858.59;;;8.21;73.23
13593;BME280;6867;50.998;4.250;2023-02-01T01:26:05;101857.09;;;8.27;72.65
13593;BME280;6867;50.998;4.250;2023-02-01T01:28:32;101871.63;;;8.08;73.24
13593;BME280;6867;50.998;4.250;2023-02-01T01:30:59;101856.38;;;8.00;72.65
13593;BME280;6867;50.998;4.250;2023-02-01T01:33:25;101859.25;;;7.98;72.40
13593;BME280;6867;50.998;4.250;2023-02-01T01:35:52;101858.38;;;7.82;72.61
13593;BME280;6867;50.998;4.250;2023-02-01T01:38:20;101869.81;;;7.58;72.86
13593;BME280;6867;50.998;4.250;2023-02-01T01:40:48;101860.59;;;7.60;72.70
13593;BME280;6867;50.998;4.250;2023-02-01T01:43:18;101870.88;;;7.39;73.08
13593;BME280;6867;50.998;4.250;2023-02-01T01:45:47;101878.22;;;7.37;72.90
13593;BME280;6867;50.998;4.250;2023-02-01T01:48:17;101881.56;;;7.39;73.22
13593;BME280;6867;50.998;4.250;2023-02-01T01:50:49;101874.31;;;7.23;73.04
13593;BME280;6867;50.998;4.250;2023-02-01T01:53:23;101878.50;;;7.26;73.32
13593;BME280;6867;50.998;4.250;2023-02-01T01:55:51;101889.34;;;7.24;72.93
13593;BME280;6867;50.998;4.250;2023-02-01T01:58:22;101881.78;;;7.11;73.11
13593;BME280;6867;50.998;4.250;2023-02-01T02:00:50;101888.78;;;7.12;73.02
13593;BME280;6867;50.998;4.250;2023-02-01T02:03:20;101885.88;;;7.06;73.13
13593;BME280;6867;50.998;4.250;2023-02-01T02:05:50;101885.38;;;7.28;72.67
13593;BME280;6867;50.998;4.250;2023-02-01T02:08:17;101875.41;;;7.12;72.50
13593;BME280;6867;50.998;4.250;2023-02-01T02:10:48;101878.28;;;7.19;72.64
13593;BME280;6867;50.998;4.250;2023-02-01T02:13:28;101889.94;;;7.10;72.72
13593;BME280;6867;50.998;4.250;2023-02-01T02:16:08;101888.31;;;7.17;72.80
13593;BME280;6867;50.998;4.250;2023-02-01T02:18:44;101890.75;;;7.10;73.14
13593;BME280;6867;50.998;4.250;2023-02-01T02:21:18;101888.56;;;7.06;72.99
13593;BME280;6867;50.998;4.250;2023-02-01T02:24:25;101890.97;;;6.91;73.56
13593;BME280;6867;50.998;4.250;2023-02-01T02:27:10;101891.47;;;6.86;73.21
13593;BME280;6867;50.998;4.250;2023-02-01T02:33:15;101878.88;;;7.05;73.38
13593;BME280;6867;50.998;4.250;2023-02-01T02:35:46;101852.88;;;6.89;72.63
13593;BME280;6867;50.998;4.250;2023-02-01T02:38:23;101856.63;;;6.96;72.95
13593;BME280;6867;50.998;4.250;2023-02-01T02:40:59;101869.09;;;6.87;73.24
13593;BME280;6867;50.998;4.250;2023-02-01T02:43:33;101885.06;;;6.79;73.73
13593;BME280;6867;50.998;4.250;2023-02-01T02:46:24;101874.44;;;6.87;73.45
13593;BME280;6867;50.998;4.250;2023-02-01T02:49:12;101873.38;;;6.80;73.58
13593;BME280;6867;50.998;4.250;2023-02-01T02:51:44;101893.00;;;6.71;74.32
13593;BME280;6867;50.998;4.250;2023-02-01T02:54:33;101873.84;;;6.76;73.87
13593;BME280;6867;50.998;4.250;2023-02-01T02:57:14;101874.19;;;6.81;73.93
13593;BME280;6867;50.998;4.250;2023-02-01T03:00:05;101872.28;;;6.91;73.89
13593;BME280;6867;50.998;4.250;2023-02-01T03:02:50;101876.84;;;6.98;73.76
13593;BME280;6867;50.998;4.250;2023-02-01T03:05:39;101870.44;;;6.91;73.76
13593;BME280;6867;50.998;4.250;2023-02-01T03:08:11;101865.34;;;7.06;73.40
13593;BME280;6867;50.998;4.250;2023-02-01T03:10:44;101864.81;;;6.94;73.00
13593;BME280;6867;50.998;4.250;2023-02-01T03:13:18;101868.34;;;7.03;73.32
13593;BME280;6867;50.998;4.250;2023-02-01T03:15:51;101853.16;;;7.04;73.28
13593;BME280;6867;50.998;4.250;2023-02-01T03:18:26;101853.28;;;6.94;73.16
13593;BME280;6867;50.998;4.250;2023-02-01T03:20:58;101878.22;;;7.03;73.22
13593;BME280;6867;50.998;4.250;2023-02-01T03:23:31;101859.28;;;6.96;73.10
13593;BME280;6867;50.998;4.250;2023-02-01T03:26:01;101855.97;;;7.02;73.29
13593;BME280;6867;50.998;4.250;2023-02-01T03:28:31;101851.22;;;7.14;72.86
13593;BME280;6867;50.998;4.250;2023-02-01T03:31:00;101860.06;;;7.14;73.09
13593;BME280;6867;50.998;4.250;2023-02-01T03:33:28;101856.88;;;7.11;72.65
13593;BME280;6867;50.998;4.250;2023-02-01T03:36:02;101860.28;;;7.21;72.79
13593;BME280;6867;50.998;4.250;2023-02-01T03:38:33;101853.88;;;7.14;72.67
13593;BME280;6867;50.998;4.250;2023-02-01T03:41:09;101853.75;;;7.15;72.78
13593;BME280;6867;50.998;4.250;2023-02-01T03:43:45;101860.00;;;7.06;72.96
13593;BME280;6867;50.998;4.250;2023-02-01T03:46:20;101875.97;;;6.98;73.21
13593;BME280;6867;50.998;4.250;2023-02-01T03:48:50;101875.44;;;6.86;73.31
13593;BME280;6867;50.998;4.250;2023-02-01T03:51:20;101877.47;;;6.92;73.75
13593;BME280;6867;50.998;4.250;2023-02-01T03:53:48;101882.13;;;6.90;73.68
13593;BME280;6867;50.998;4.250;2023-02-01T03:56:17;101868.84;;;6.98;73.69
13593;BME280;6867;50.998;4.250;2023-02-01T03:58:44;101866.66;;;6.76;73.32
13593;BME280;6867;50.998;4.250;2023-02-01T04:01:24;101879.25;;;6.84;73.86
13593;BME280;6867;50.998;4.250;2023-02-01T04:03:51;101888.78;;;6.68;74.16
13593;BME280;6867;50.998;4.250;2023-02-01T04:06:20;101888.34;;;6.73;73.74
13593;BME280;6867;50.998;4.250;2023-02-01T04:08:46;101882.59;;;6.86;73.63
13593;BME280;6867;50.998;4.250;2023-02-01T04:11:13;101884.69;;;6.74;73.98
13593;BME280;6867;50.998;4.250;2023-02-01T04:13:40;101900.72;;;6.74;74.14
13593;BME280;6867;50.998;4.250;2023-02-01T04:16:07;101882.00;;;6.74;73.95
13593;BME280;6867;50.998;4.250;2023-02-01T04:18:33;101880.00;;;6.76;73.95
13593;BME280;6867;50.998;4.250;2023-02-01T04:21:00;101901.38;;;6.76;73.97
13593;BME280;6867;50.998;4.250;2023-02-01T04:23:29;101898.41;;;6.79;74.13
13593;BME280;6867;50.998;4.250;2023-02-01T04:25:59;101888.66;;;6.70;73.81
13593;BME280;6867;50.998;4.250;2023-02-01T04:28:26;101884.69;;;6.74;73.66
13593;BME280;6867;50.998;4.250;2023-02-01T04:30:53;101896.13;;;6.66;74.18
13593;BME280;6867;50.998;4.250;2023-02-01T04:33:20;101901.47;;;6.66;74.20
13593;BME280;6867;50.998;4.250;2023-02-01T04:35:47;101895.97;;;6.68;74.67
13593;BME280;6867;50.998;4.250;2023-02-01T04:38:13;101895.97;;;6.68;74.20
13593;BME280;6867;50.998;4.250;2023-02-01T04:40:42;101905.69;;;6.69;74.54
13593;BME280;6867;50.998;4.250;2023-02-01T04:43:08;101904.63;;;6.62;74.18
13593;BME280;6867;50.998;4.250;2023-02-01T04:45:35;101900.50;;;6.49;74.90
13593;BME280;6867;50.998;4.250;2023-02-01T04:48:02;101895.91;;;6.60;74.33
13593;BME280;6867;50.998;4.250;2023-02-01T04:50:29;101902.47;;;6.47;74.62
13593;BME280;6867;50.998;4.250;2023-02-01T04:52:55;101906.84;;;6.48;74.62
13593;BME280;6867;50.998;4.250;2023-02-01T04:55:22;101908.13;;;6.44;74.86
13593;BME280;6867;50.998;4.250;2023-02-01T04:57:50;101913.69;;;6.51;74.52
13593;BME280;6867;50.998;4.250;2023-02-01T05:00:18;101921.53;;;6.35;74.89
13593;BME280;6867;50.998;4.250;2023-02-01T05:02:44;101924.53;;;6.32;75.19
13593;BME280;6867;50.998;4.250;2023-02-01T05:05:11;101916.72;;;6.38;75.17
13593;BME280;6867;50.998;4.250;2023-02-01T05:07:38;101916.06;;;6.36;74.95
13593;BME280;6867;50.998;4.250;2023-02-01T05:10:05;101910.09;;;6.07;75.79
13593;BME280;6867;50.998;4.250;2023-02-01T05:12:32;101916.03;;;6.18;75.85
13593;BME280;6867;50.998;4.250;2023-02-01T05:15:17;101912.59;;;6.26;75.79
13593;BME280;6867;50.998;4.250;2023-02-01T05:17:44;101907.44;;;6.24;75.61
13593;BME280;6867;50.998;4.250;2023-02-01T05:20:11;101900.47;;;6.14;75.76
13593;BME280;6867;50.998;4.250;2023-02-01T05:22:37;101914.44;;;6.08;76.11
13593;BME280;6867;50.998;4.250;2023-02-01T05:25:07;101910.03;;;6.16;76.09
13593;BME280;6867;50.998;4.250;2023-02-01T05:27:34;101910.41;;;6.21;75.98
13593;BME280;6867;50.998;4.250;2023-02-01T05:30:01;101910.09;;;6.24;75.94
13593;BME280;6867;50.998;4.250;2023-02-01T05:32:29;101901.72;;;6.19;75.94
13593;BME280;6867;50.998;4.250;2023-02-01T05:34:56;101906.06;;;6.38;75.84
13593;BME280;6867;50.998;4.250;2023-02-01T05:37:23;101894.38;;;6.21;75.84
13593;BME280;6867;50.998;4.250;2023-02-01T05:39:49;101902.56;;;6.20;75.83
13593;BME280;6867;50.998;4.250;2023-02-01T05:42:16;101898.13;;;6.11;75.64
13593;BME280;6867;50.998;4.250;2023-02-01T05:44:43;101917.09;;;6.08;76.09
13593;BME280;6867;50.998;4.250;2023-02-01T05:47:10;101918.97;;;5.97;76.46
13593;BME280;6867;50.998;4.250;2023-02-01T05:49:39;101918.59;;;5.92;76.94
13593;BME280;6867;50.998;4.250;2023-02-01T05:52:06;101923.66;;;6.13;76.33
13593;BME280;6867;50.998;4.250;2023-02-01T05:54:32;101926.22;;;6.05;76.30
13593;BME280;6867;50.998;4.250;2023-02-01T05:56:59;101928.44;;;6.10;76.16
13593;BME280;6867;50.998;4.250;2023-02-01T05:59:26;101921.22;;;6.02;76.51
13593;BME280;6867;50.998;4.250;2023-02-01T06:01:53;101929.72;;;6.06;76.07
13593;BME280;6867;50.998;4.250;2023-02-01T06:04:19;101928.69;;;6.16;76.25
13593;BME280;6867;50.998;4.250;2023-02-01T06:06:47;101945.00;;;6.13;76.07
13593;BME280;6867;50.998;4.250;2023-02-01T06:09:16;101934.56;;;6.20;76.07
13593;BME280;6867;50.998;4.250;2023-02-01T06:11:42;101933.13;;;6.26;75.95
13593;BME280;6867;50.998;4.250;2023-02-01T06:14:09;101931.09;;;6.10;75.59
13593;BME280;6867;50.998;4.250;2023-02-01T06:16:36;101941.69;;;6.02;76.26
13593;BME280;6867;50.998;4.250;2023-02-01T06:19:03;101935.78;;;6.08;76.18
13593;BME280;6867;50.998;4.250;2023-02-01T06:21:30;101939.06;;;6.19;76.15
13593;BME280;6867;50.998;4.250;2023-02-01T06:23:58;101941.88;;;6.18;75.90
13593;BME280;6867;50.998;4.250;2023-02-01T06:26:25;101926.09;;;6.07;76.01
13593;BME280;6867;50.998;4.250;2023-02-01T06:28:53;101905.91;;;6.22;75.78
13593;BME280;6867;50.998;4.250;2023-02-01T06:31:21;101911.22;;;6.22;75.84
13593;BME280;6867;50.998;4.250;2023-02-01T06:33:48;101905.34;;;6.18;76.11
13593;BME280;6867;50.998;4.250;2023-02-01T06:36:15;101908.28;;;6.25;75.85
13593;BME280;6867;50.998;4.250;2023-02-01T06:38:44;101906.81;;;6.13;75.96
13593;BME280;6867;50.998;4.250;2023-02-01T06:41:12;101915.06;;;6.19;75.75
13593;BME280;6867;50.998;4.250;2023-02-01T06:43:38;101912.13;;;6.13;76.12
13593;BME280;6867;50.998;4.250;2023-02-01T06:46:08;101936.16;;;6.13;75.96
13593;BME280;6867;50.998;4.250;2023-02-01T06:48:36;101932.09;;;6.09;76.29
13593;BME280;6867;50.998;4.250;2023-02-01T06:51:03;101941.31;;;6.14;76.22
13593;BME280;6867;50.998;4.250;2023-02-01T06:53:29;101932.00;;;6.01;76.28
13593;BME280;6867;50.998;4.250;2023-02-01T06:55:58;101941.34;;;5.87;76.58
13593;BME280;6867;50.998;4.250;2023-02-01T06:58:28;101952.09;;;6.22;76.53
13593;BME280;6867;50.998;4.250;2023-02-01T07:00:54;101944.53;;;6.18;76.35
13593;BME280;6867;50.998;4.250;2023-02-01T07:03:21;101950.19;;;6.15;76.71
13593;BME280;6867;50.998;4.250;2023-02-01T07:05:48;101949.00;;;5.99;76.40
13593;BME280;6867;50.998;4.250;2023-02-01T07:08:15;101946.28;;;6.09;76.59
13593;BME280;6867;50.998;4.250;2023-02-01T07:10:41;101930.53;;;6.16;76.18
13593;BME280;6867;50.998;4.250;2023-02-01T07:13:08;101941.19;;;6.16;76.26
13593;BME280;6867;50.998;4.250;2023-02-01T07:15:36;101948.94;;;6.09;76.57
13593;BME280;6867;50.998;4.250;2023-02-01T07:18:03;101947.81;;;6.12;76.50
13593;BME280;6867;50.998;4.250;2023-02-01T07:20:30;101935.84;;;6.16;76.42
13593;BME280;6867;50.998;4.250;2023-02-01T07:22:57;101944.94;;;6.23;75.95
13593;BME280;6867;50.998;4.250;2023-02-01T07:25:24;101948.50;;;6.14;75.99
13593;BME280;6867;50.998;4.250;2023-02-01T07:27:51;101953.09;;;6.21;76.14
13593;BME280;6867;50.998;4.250;2023-02-01T07:30:18;101956.00;;;6.28;75.69
13593;BME280;6867;50.998;4.250;2023-02-01T07:32:46;101944.25;;;6.39;75.57
13593;BME280;6867;50.998;4.250;2023-02-01T07:35:12;101942.03;;;6.34;75.24
13593;BME280;6867;50.998;4.250;2023-02-01T07:37:40;101939.38;;;6.16;75.83
13593;BME280;6867;50.998;4.250;2023-02-01T07:40:08;101955.72;;;6.04;76.39
13593;BME280;6867;50.998;4.250;2023-02-01T07:42:35;101972.06;;;6.18;76.47
13593;BME280;6867;50.998;4.250;2023-02-01T07:45:02;101952.44;;;6.10;76.28
13593;BME280;6867;50.998;4.250;2023-02-01T07:47:29;101956.63;;;6.40;76.23
13593;BME280;6867;50.998;4.250;2023-02-01T07:49:57;101936.25;;;6.39;75.55
13593;BME280;6867;50.998;4.250;2023-02-01T07:52:23;101934.81;;;6.44;75.32
13593;BME280;6867;50.998;4.250;2023-02-01T07:54:50;101933.75;;;6.55;75.08
13593;BME280;6867;50.998;4.250;2023-02-01T07:57:17;101930.84;;;6.66;75.06
13593;BME280;6867;50.998;4.250;2023-02-01T07:59:43;101922.06;;;6.74;75.02
13593;BME280;6867;50.998;4.250;2023-02-01T08:02:24;101931.41;;;6.96;74.18
13593;BME280;6867;50.998;4.250;2023-02-01T08:04:51;101927.97;;;7.04;74.25
13593;BME280;6867;50.998;4.250;2023-02-01T08:07:19;101933.56;;;6.92;73.84
13593;BME280;6867;50.998;4.250;2023-02-01T08:09:47;101932.69;;;7.10;73.29
13593;BME280;6867;50.998;4.250;2023-02-01T08:12:14;101927.59;;;6.98;73.83
13593;BME280;6867;50.998;4.250;2023-02-01T08:14:40;101941.56;;;6.92;73.69
13593;BME280;6867;50.998;4.250;2023-02-01T08:17:07;101923.69;;;7.11;72.71
13593;BME280;6867;50.998;4.250;2023-02-01T08:19:34;101922.50;;;7.39;72.32
13593;BME280;6867;50.998;4.250;2023-02-01T08:22:00;101921.00;;;7.11;72.71
13593;BME280;6867;50.998;4.250;2023-02-01T08:24:33;101921.72;;;6.95;73.01
13593;BME280;6867;50.998;4.250;2023-02-01T08:27:00;101942.81;;;7.24;72.58
13593;BME280;6867;50.998;4.250;2023-02-01T08:29:27;101941.97;;;7.23;72.47
13593;BME280;6867;50.998;4.250;2023-02-01T08:31:54;101937.00;;;7.29;72.58
13593;BME280;6867;50.998;4.250;2023-02-01T08:34:21;101939.59;;;7.46;72.16
13593;BME280;6867;50.998;4.250;2023-02-01T08:36:48;101937.41;;;7.16;72.43
13593;BME280;6867;50.998;4.250;2023-02-01T08:39:17;101937.53;;;7.32;72.29
13593;BME280;6867;50.998;4.250;2023-02-01T08:41:45;101945.69;;;7.31;72.39
13593;BME280;6867;50.998;4.250;2023-02-01T08:44:33;101946.38;;;7.67;71.82
13593;BME280;6867;50.998;4.250;2023-02-01T08:47:00;101937.78;;;7.21;71.99
13593;BME280;6867;50.998;4.250;2023-02-01T08:49:27;101942.91;;;7.40;72.24
13593;BME280;6867;50.998;4.250;2023-02-01T08:51:54;101930.59;;;7.82;72.01
13593;BME280;6867;50.998;4.250;2023-02-01T08:54:21;101924.56;;;7.88;71.45
13593;BME280;6867;50.998;4.250;2023-02-01T08:56:49;101909.69;;;7.85;70.89
13593;BME280;6867;50.998;4.250;2023-02-01T08:59:16;101902.63;;;7.76;70.64
13593;BME280;6867;50.998;4.250;2023-02-01T09:01:43;101909.31;;;7.80;71.04
13593;BME280;6867;50.998;4.250;2023-02-01T09:04:09;101911.09;;;8.14;70.94
13593;BME280;6867;50.998;4.250;2023-02-01T09:06:36;101898.38;;;7.99;70.95
13593;BME280;6867;50.998;4.250;2023-02-01T09:09:03;101901.34;;;7.88;70.46
13593;BME280;6867;50.998;4.250;2023-02-01T09:11:30;101908.34;;;7.89;70.99
13593;BME280;6867;50.998;4.250;2023-02-01T09:13:58;101897.19;;;8.02;70.31
13593;BME280;6867;50.998;4.250;2023-02-01T09:16:25;101877.97;;;8.07;70.40
13593;BME280;6867;50.998;4.250;2023-02-01T09:18:51;101898.38;;;8.08;70.60
13593;BME280;6867;50.998;4.250;2023-02-01T09:21:18;101886.72;;;8.25;70.67
13593;BME280;6867;50.998;4.250;2023-02-01T09:23:45;101875.50;;;8.21;69.97
13593;BME280;6867;50.998;4.250;2023-02-01T09:26:14;101872.53;;;8.49;69.43
13593;BME280;6867;50.998;4.250;2023-02-01T09:28:41;101872.56;;;8.57;69.51
13593;BME280;6867;50.998;4.250;2023-02-01T09:31:09;101861.66;;;8.59;69.08
13593;BME280;6867;50.998;4.250;2023-02-01T09:33:36;101861.31;;;8.54;69.23
13593;BME280;6867;50.998;4.250;2023-02-01T09:36:04;101865.97;;;8.84;68.56
13593;BME280;6867;50.998;4.250;2023-02-01T09:38:31;101867.66;;;8.93;68.13
13593;BME280;6867;50.998;4.250;2023-02-01T09:40:59;101856.25;;;9.00;68.13
13593;BME280;6867;50.998;4.250;2023-02-01T09:43:37;101848.34;;;9.06;67.54
13593;BME280;6867;50.998;4.250;2023-02-01T09:46:21;101843.03;;;8.82;68.07
13593;BME280;6867;50.998;4.250;2023-02-01T09:48:54;101866.50;;;8.71;68.25
13593;BME280;6867;50.998;4.250;2023-02-01T09:51:24;101873.97;;;9.17;67.04
13593;BME280;6867;50.998;4.250;2023-02-01T09:53:59;101843.03;;;9.45;67.00
13593;BME280;6867;50.998;4.250;2023-02-01T09:56:35;101834.75;;;9.24;65.99
13593;BME280;6867;50.998;4.250;2023-02-01T09:59:09;101835.38;;;9.34;66.01
13593;BME280;6867;50.998;4.250;2023-02-01T10:01:42;101841.50;;;9.12;66.85
13593;BME280;6867;50.998;4.250;2023-02-01T10:04:13;101843.91;;;9.38;66.86
13593;BME280;6867;50.998;4.250;2023-02-01T10:06:49;101849.44;;;9.36;66.77
13593;BME280;6867;50.998;4.250;2023-02-01T10:09:37;101869.66;;;9.55;66.19
13593;BME280;6867;50.998;4.250;2023-02-01T10:12:26;101839.59;;;9.29;66.12
13593;BME280;6867;50.998;4.250;2023-02-01T10:15:03;101830.81;;;9.43;65.99
13593;BME280;6867;50.998;4.250;2023-02-01T10:17:47;101829.28;;;9.40;65.93
13593;BME280;6867;50.998;4.250;2023-02-01T10:20:22;101825.47;;;9.74;65.17
13593;BME280;6867;50.998;4.250;2023-02-01T10:23:02;101797.13;;;9.71;64.73
13593;BME280;6867;50.998;4.250;2023-02-01T10:25:35;101816.25;;;9.68;64.18
13593;BME280;6867;50.998;4.250;2023-02-01T10:28:03;101839.84;;;9.50;65.56
13593;BME280;6867;50.998;4.250;2023-02-01T10:30:34;101824.66;;;9.96;64.62
13593;BME280;6867;50.998;4.250;2023-02-01T10:33:14;101798.25;;;10.08;63.04
13593;BME280;6867;50.998;4.250;2023-02-01T10:35:44;101794.59;;;10.01;62.95
13593;BME280;6867;50.998;4.250;2023-02-01T10:38:20;101770.75;;;9.83;63.03
13593;BME280;6867;50.998;4.250;2023-02-01T10:40:51;101779.84;;;10.20;62.30
13593;BME280;6867;50.998;4.250;2023-02-01T10:43:19;101787.91;;;10.43;62.54
13593;BME280;6867;50.998;4.250;2023-02-01T10:45:46;101749.84;;;10.16;62.20
13593;BME280;6867;50.998;4.250;2023-02-01T10:48:15;101753.63;;;9.84;62.31
13593;BME280;6867;50.998;4.250;2023-02-01T10:50:48;101757.88;;;10.25;62.35
13593;BME280;6867;50.998;4.250;2023-02-01T10:53:18;101755.56;;;10.36;62.01
13593;BME280;6867;50.998;4.250;2023-02-01T10:55:49;101725.00;;;10.52;60.50
13593;BME280;6867;50.998;4.250;2023-02-01T10:58:18;101726.97;;;10.73;60.68
13593;BME280;6867;50.998;4.250;2023-02-01T11:00:48;101722.81;;;10.85;60.22
13593;BME280;6867;50.998;4.250;2023-02-01T11:03:32;101723.25;;;10.89;59.96
13593;BME280;6867;50.998;4.250;2023-02-01T11:06:00;101686.84;;;10.86;58.81
13593;BME280;6867;50.998;4.250;2023-02-01T11:08:27;101668.16;;;11.14;59.00
13593;BME280;6867;50.998;4.250;2023-02-01T11:10:58;101680.28;;;11.25;58.44
13593;BME280;6867;50.998;4.250;2023-02-01T11:13:29;101638.66;;;10.85;58.37
13593;BME280;6867;50.998;4.250;2023-02-01T11:15:57;101668.31;;;10.91;58.70
13593;BME280;6867;50.998;4.250;2023-02-01T11:18:28;101638.78;;;10.47;59.12
13593;BME280;6867;50.998;4.250;2023-02-01T11:20:55;101662.75;;;10.48;59.54
13593;BME280;6867;50.998;4.250;2023-02-01T11:23:24;101659.88;;;10.65;59.68
13593;BME280;6867;50.998;4.250;2023-02-01T11:25:54;101680.28;;;10.30;60.02
13593;BME280;6867;50.998;4.250;2023-02-01T11:28:23;101691.19;;;10.28;60.39
13593;BME280;6867;50.998;4.250;2023-02-01T11:30:53;101696.63;;;10.20;59.96
13593;BME280;6867;50.998;4.250;2023-02-01T11:33:24;101702.88;;;10.80;59.34
13593;BME280;6867;50.998;4.250;2023-02-01T11:35:58;101659.09;;;11.01;58.27
13593;BME280;6867;50.998;4.250;2023-02-01T11:38:28;101647.81;;;11.48;57.56
13593;BME280;6867;50.998;4.250;2023-02-01T11:40:56;101651.47;;;11.40;57.91
13593;BME280;6867;50.998;4.250;2023-02-01T11:43:37;101583.31;;;11.55;56.57
13593;BME280;6867;50.998;4.250;2023-02-01T11:46:16;101621.69;;;11.63;57.02
13593;BME280;6867;50.998;4.250;2023-02-01T11:48:47;101599.09;;;12.14;55.74
13593;BME280;6867;50.998;4.250;2023-02-01T11:51:25;101573.31;;;11.98;55.33
13593;BME280;6867;50.998;4.250;2023-02-01T11:54:05;101534.06;;;12.17;54.27
13593;BME280;6867;50.998;4.250;2023-02-01T11:56:37;101515.38;;;12.09;53.94
13593;BME280;6867;50.998;4.250;2023-02-01T11:59:21;101536.09;;;11.80;54.46
13593;BME280;6867;50.998;4.250;2023-02-01T12:02:03;101523.81;;;11.99;53.70
13593;BME280;6867;50.998;4.250;2023-02-01T12:05:05;101516.47;;;11.86;54.25
13593;BME280;6867;50.998;4.250;2023-02-01T12:07:49;101532.91;;;11.91;54.04
13593;BME280;6867;50.998;4.250;2023-02-01T12:10:28;101467.25;;;11.92;52.93
13593;BME280;6867;50.998;4.250;2023-02-01T12:13:07;101455.22;;;11.88;52.57
13593;BME280;6867;50.998;4.250;2023-02-01T12:15:46;101512.09;;;12.20;53.33
13593;BME280;6867;50.998;4.250;2023-02-01T12:18:36;101497.28;;;12.37;52.22
13593;BME280;6867;50.998;4.250;2023-02-01T12:21:21;101420.34;;;12.21;51.79
13593;BME280;6867;50.998;4.250;2023-02-01T12:24:06;101476.31;;;12.33;52.08
13593;BME280;6867;50.998;4.250;2023-02-01T12:26:43;101432.22;;;12.54;51.08
13593;BME280;6867;50.998;4.250;2023-02-01T12:29:26;101428.88;;;12.45;51.36
13593;BME280;6867;50.998;4.250;2023-02-01T12:32:06;101449.75;;;12.16;51.92
13593;BME280;6867;50.998;4.250;2023-02-01T12:34:46;101444.09;;;12.05;51.96
13593;BME280;6867;50.998;4.250;2023-02-01T12:37:31;101461.91;;;12.06;52.33
13593;BME280;6867;50.998;4.250;2023-02-01T12:40:17;101473.44;;;12.34;52.08
13593;BME280;6867;50.998;4.250;2023-02-01T12:42:55;101486.53;;;12.57;52.03
13593;BME280;6867;50.998;4.250;2023-02-01T12:45:29;101428.31;;;13.03;50.57
13593;BME280;6867;50.998;4.250;2023-02-01T12:48:02;101430.63;;;12.92;50.99
13593;BME280;6867;50.998;4.250;2023-02-01T12:50:35;101444.94;;;13.13;50.94
13593;BME280;6867;50.998;4.250;2023-02-01T12:53:17;101394.69;;;13.45;49.54
13593;BME280;6867;50.998;4.250;2023-02-01T12:55:52;101389.53;;;13.04;49.96
13593;BME280;6867;50.998;4.250;2023-02-01T12:58:23;101410.69;;;13.20;50.01
13593;BME280;6867;50.998;4.250;2023-02-01T13:00:59;101440.09;;;13.68;49.53
13593;BME280;6867;50.998;4.250;2023-02-01T13:03:34;101423.25;;;14.24;48.29
13593;BME280;6867;50.998;4.250;2023-02-01T13:06:07;101394.25;;;14.13;48.64
13593;BME280;6867;50.998;4.250;2023-02-01T13:08:41;101343.44;;;13.83;48.51
13593;BME280;6867;50.998;4.250;2023-02-01T13:11:13;101356.78;;;13.78;48.00
13593;BME280;6867;50.998;4.250;2023-02-01T13:13:48;101360.38;;;13.65;48.19
13593;BME280;6867;50.998;4.250;2023-02-01T13:16:25;101349.72;;;13.84;47.54
13593;BME280;6867;50.998;4.250;2023-02-01T13:19:00;101378.25;;;13.53;48.79
13593;BME280;6867;50.998;4.250;2023-02-01T13:21:33;101377.84;;;13.56;48.45
13593;BME280;6867;50.998;4.250;2023-02-01T13:24:01;101404.47;;;13.46;48.58
13593;BME280;6867;50.998;4.250;2023-02-01T13:26:30;101403.53;;;13.72;48.63
13593;BME280;6867;50.998;4.250;2023-02-01T13:28:58;101362.28;;;13.45;48.23
13593;BME280;6867;50.998;4.250;2023-02-01T13:31:46;101417.13;;;13.19;49.46